sensor_id;sensor_type;location;lat;lon;timestamp;P1;durP1;ratioP1;P2;durP2;ratioP2
4980;SDS011;2507;50.392;7.482;2023-05-20T00:01:14;2.67;;;2.47;;
4980;SDS011;2507;50.392;7.482;2023-05-20T00:03:40;2.13;;;2.03;;
4980;SDS011;2507;50.392;7.482;2023-05-20T00:06:05;2.83;;;2.73;;
4980;SDS011;2507;50.392;7.482;2023-05-20T00:08:30;2.87;;;2.60;;
4980;SDS011;2507;50.392;7.482;2023-05-20T00:10:55;2.10;;;2.03;;
4980;SDS011;2507;50.392;7.482;2023-05-20T00:13:21;2.20;;;2.10;;
4980;SDS011;2507;50.392;7.482;2023-05-20T00:15:48;2.50;;;2.40;;
4980;SDS011;2507;50.392;7.482;2023-05-20T00:18:13;2.30;;;2.20;;
4980;SDS011;2507;50.392;7.482;2023-05-20T00:20:38;3.23;;;2.60;;
4980;SDS011;2507;50.392;7.482;2023-05-20T00:23:04;3.00;;;2.80;;
4980;SDS011;2507;50.392;7.482;2023-05-20T00:25:29;2.17;;;2.07;;
4980;SDS011;2507;50.392;7.482;2023-05-20T00:27:56;3.37;;;2.30;;
4980;SDS011;2507;50.392;7.482;2023-05-20T00:30:21;3.10;;;2.90;;
4980;SDS011;2507;50.392;7.482;2023-05-20T00:32:46;2.87;;;2.10;;
4980;SDS011;2507;50.392;7.482;2023-05-20T00:35:12;2.93;;;2.73;;
4980;SDS011;2507;50.392;7.482;2023-05-20T00:37:37;2.60;;;2.40;;
4980;SDS011;2507;50.392;7.482;2023-05-20T00:40:03;2.73;;;2.53;;
4980;SDS011;2507;50.392;7.482;2023-05-20T00:42:29;4.67;;;3.00;;
4980;SDS011;2507;50.392;7.482;2023-05-20T00:44:55;4.47;;;3.00;;
4980;SDS011;2507;50.392;7.482;2023-05-20T00:47:25;2.53;;;2.33;;
4980;SDS011;2507;50.392;7.482;2023-05-20T00:49:54;2.83;;;2.63;;
4980;SDS011;2507;50.392;7.482;2023-05-20T00:52:20;3.57;;;3.27;;
4980;SDS011;2507;50.392;7.482;2023-05-20T00:54:47;2.80;;;2.60;;
4980;SDS011;2507;50.392;7.482;2023-05-20T00:57:13;2.33;;;2.20;;
4980;SDS011;2507;50.392;7.482;2023-05-20T00:59:40;2.83;;;2.73;;
4980;SDS011;2507;50.392;7.482;2023-05-20T01:02:09;9.10;;;2.97;;
4980;SDS011;2507;50.392;7.482;2023-05-20T01:04:35;5.50;;;3.10;;
4980;SDS011;2507;50.392;7.482;2023-05-20T01:07:01;2.83;;;2.63;;
4980;SDS011;2507;50.392;7.482;2023-05-20T01:09:29;2.90;;;2.70;;
4980;SDS011;2507;50.392;7.482;2023-05-20T01:14:31;2.90;;;2.70;;
4980;SDS011;2507;50.392;7.482;2023-05-20T01:17:01;7.07;;;3.00;;
4980;SDS011;2507;50.392;7.482;2023-05-20T01:22:08;2.93;;;2.67;;
4980;SDS011;2507;50.392;7.482;2023-05-20T01:24:44;2.80;;;2.60;;
4980;SDS011;2507;50.392;7.482;2023-05-20T01:27:17;5.53;;;3.47;;
4980;SDS011;2507;50.392;7.482;2023-05-20T01:29:44;2.83;;;2.50;;
4980;SDS011;2507;50.392;7.482;2023-05-20T01:34:58;2.50;;;2.40;;
4980;SDS011;2507;50.392;7.482;2023-05-20T01:37:27;3.00;;;2.73;;
4980;SDS011;2507;50.392;7.482;2023-05-20T01:39:55;2.90;;;2.70;;
4980;SDS011;2507;50.392;7.482;2023-05-20T01:42:21;3.20;;;2.90;;
4980;SDS011;2507;50.392;7.482;2023-05-20T01:44:48;3.70;;;3.37;;
4980;SDS011;2507;50.392;7.482;2023-05-20T01:47:14;3.00;;;2.73;;
4980;SDS011;2507;50.392;7.482;2023-05-20T01:49:39;4.10;;;2.67;;
4980;SDS011;2507;50.392;7.482;2023-05-20T01:52:05;4.13;;;3.00;;
4980;SDS011;2507;50.392;7.482;2023-05-20T01:54:30;3.17;;;2.50;;
4980;SDS011;2507;50.392;7.482;2023-05-20T01:56:56;3.47;;;2.87;;
4980;SDS011;2507;50.392;7.482;2023-05-20T01:59:21;2.43;;;2.23;;
4980;SDS011;2507;50.392;7.482;2023-05-20T02:01:46;4.03;;;2.20;;
4980;SDS011;2507;50.392;7.482;2023-05-20T02:04:12;2.50;;;2.40;;
4980;SDS011;2507;50.392;7.482;2023-05-20T02:06:37;4.17;;;2.90;;
4980;SDS011;2507;50.392;7.482;2023-05-20T02:09:02;3.30;;;2.73;;
4980;SDS011;2507;50.392;7.482;2023-05-20T02:11:28;3.03;;;2.83;;
4980;SDS011;2507;50.392;7.482;2023-05-20T02:13:53;2.50;;;2.40;;
4980;SDS011;2507;50.392;7.482;2023-05-20T02:16:18;2.43;;;2.33;;
4980;SDS011;2507;50.392;7.482;2023-05-20T02:18:44;4.40;;;2.70;;
4980;SDS011;2507;50.392;7.482;2023-05-20T02:21:09;2.50;;;2.40;;
4980;SDS011;2507;50.392;7.482;2023-05-20T02:23:34;3.33;;;2.90;;
4980;SDS011;2507;50.392;7.482;2023-05-20T02:26:00;2.70;;;2.50;;
4980;SDS011;2507;50.392;7.482;2023-05-20T02:28:26;2.73;;;2.53;;
4980;SDS011;2507;50.392;7.482;2023-05-20T02:30:51;2.90;;;2.67;;
4980;SDS011;2507;50.392;7.482;2023-05-20T02:33:17;5.17;;;2.80;;
4980;SDS011;2507;50.392;7.482;2023-05-20T02:35:45;3.20;;;3.00;;
4980;SDS011;2507;50.392;7.482;2023-05-20T02:38:11;3.60;;;3.17;;
4980;SDS011;2507;50.392;7.482;2023-05-20T02:40:37;2.97;;;2.77;;
4980;SDS011;2507;50.392;7.482;2023-05-20T02:43:02;3.47;;;3.10;;
4980;SDS011;2507;50.392;7.482;2023-05-20T02:45:28;3.20;;;2.87;;
4980;SDS011;2507;50.392;7.482;2023-05-20T02:47:54;3.43;;;2.97;;
4980;SDS011;2507;50.392;7.482;2023-05-20T02:50:19;3.90;;;3.60;;
4980;SDS011;2507;50.392;7.482;2023-05-20T02:52:45;2.77;;;2.60;;
4980;SDS011;2507;50.392;7.482;2023-05-20T02:55:11;3.00;;;2.90;;
4980;SDS011;2507;50.392;7.482;2023-05-20T02:57:36;3.17;;;3.00;;
4980;SDS011;2507;50.392;7.482;2023-05-20T03:00:05;3.30;;;3.00;;
4980;SDS011;2507;50.392;7.482;2023-05-20T03:02:32;2.77;;;2.60;;
4980;SDS011;2507;50.392;7.482;2023-05-20T03:04:57;3.40;;;3.10;;
4980;SDS011;2507;50.392;7.482;2023-05-20T03:07:23;5.63;;;3.13;;
4980;SDS011;2507;50.392;7.482;2023-05-20T03:09:49;3.57;;;2.93;;
4980;SDS011;2507;50.392;7.482;2023-05-20T03:12:14;7.53;;;3.37;;
4980;SDS011;2507;50.392;7.482;2023-05-20T03:14:39;3.43;;;2.87;;
4980;SDS011;2507;50.392;7.482;2023-05-20T03:17:05;3.53;;;3.27;;
4980;SDS011;2507;50.392;7.482;2023-05-20T03:19:30;5.70;;;3.33;;
4980;SDS011;2507;50.392;7.482;2023-05-20T03:21:55;2.43;;;2.33;;
4980;SDS011;2507;50.392;7.482;2023-05-20T03:24:21;3.20;;;2.90;;
4980;SDS011;2507;50.392;7.482;2023-05-20T03:26:47;11.07;;;3.60;;
4980;SDS011;2507;50.392;7.482;2023-05-20T03:29:13;4.13;;;2.90;;
4980;SDS011;2507;50.392;7.482;2023-05-20T03:31:38;3.27;;;2.97;;
4980;SDS011;2507;50.392;7.482;2023-05-20T03:34:03;3.43;;;3.10;;
4980;SDS011;2507;50.392;7.482;2023-05-20T03:36:28;3.13;;;2.80;;
4980;SDS011;2507;50.392;7.482;2023-05-20T03:38:54;5.07;;;3.30;;
4980;SDS011;2507;50.392;7.482;2023-05-20T03:41:19;3.53;;;3.23;;
4980;SDS011;2507;50.392;7.482;2023-05-20T03:43:45;3.13;;;2.93;;
4980;SDS011;2507;50.392;7.482;2023-05-20T03:46:10;6.03;;;3.27;;
4980;SDS011;2507;50.392;7.482;2023-05-20T03:48:35;3.50;;;3.20;;
4980;SDS011;2507;50.392;7.482;2023-05-20T03:51:01;2.97;;;2.70;;
4980;SDS011;2507;50.392;7.482;2023-05-20T03:53:26;3.00;;;2.90;;
4980;SDS011;2507;50.392;7.482;2023-05-20T03:55:51;3.20;;;2.90;;
4980;SDS011;2507;50.392;7.482;2023-05-20T03:58:17;4.27;;;3.97;;
4980;SDS011;2507;50.392;7.482;2023-05-20T04:00:44;5.40;;;3.10;;
4980;SDS011;2507;50.392;7.482;2023-05-20T04:03:10;4.53;;;3.30;;
4980;SDS011;2507;50.392;7.482;2023-05-20T04:05:36;3.23;;;2.90;;
4980;SDS011;2507;50.392;7.482;2023-05-20T04:08:01;4.37;;;3.07;;
4980;SDS011;2507;50.392;7.482;2023-05-20T04:10:28;3.20;;;2.90;;
4980;SDS011;2507;50.392;7.482;2023-05-20T04:12:56;3.40;;;3.20;;
4980;SDS011;2507;50.392;7.482;2023-05-20T04:15:21;7.87;;;3.50;;
4980;SDS011;2507;50.392;7.482;2023-05-20T04:17:47;3.30;;;3.00;;
4980;SDS011;2507;50.392;7.482;2023-05-20T04:20:14;4.00;;;2.80;;
4980;SDS011;2507;50.392;7.482;2023-05-20T04:22:40;3.63;;;3.33;;
4980;SDS011;2507;50.392;7.482;2023-05-20T04:25:05;2.80;;;2.70;;
4980;SDS011;2507;50.392;7.482;2023-05-20T04:27:31;3.33;;;2.70;;
4980;SDS011;2507;50.392;7.482;2023-05-20T04:29:57;3.30;;;3.00;;
4980;SDS011;2507;50.392;7.482;2023-05-20T04:32:23;3.73;;;3.20;;
4980;SDS011;2507;50.392;7.482;2023-05-20T04:34:48;4.03;;;3.47;;
4980;SDS011;2507;50.392;7.482;2023-05-20T04:37:14;5.73;;;2.60;;
4980;SDS011;2507;50.392;7.482;2023-05-20T04:39:40;3.40;;;3.10;;
4980;SDS011;2507;50.392;7.482;2023-05-20T04:42:07;4.93;;;3.97;;
4980;SDS011;2507;50.392;7.482;2023-05-20T04:44:32;4.00;;;3.70;;
4980;SDS011;2507;50.392;7.482;2023-05-20T04:46:58;4.07;;;3.13;;
4980;SDS011;2507;50.392;7.482;2023-05-20T04:49:24;7.97;;;3.50;;
4980;SDS011;2507;50.392;7.482;2023-05-20T04:51:50;3.47;;;3.17;;
4980;SDS011;2507;50.392;7.482;2023-05-20T04:54:16;3.50;;;3.20;;
4980;SDS011;2507;50.392;7.482;2023-05-20T04:56:44;3.20;;;3.00;;
4980;SDS011;2507;50.392;7.482;2023-05-20T04:59:10;2.90;;;2.70;;
4980;SDS011;2507;50.392;7.482;2023-05-20T05:01:36;3.60;;;3.33;;
4980;SDS011;2507;50.392;7.482;2023-05-20T05:04:01;3.10;;;2.90;;
4980;SDS011;2507;50.392;7.482;2023-05-20T05:06:26;3.73;;;3.43;;
4980;SDS011;2507;50.392;7.482;2023-05-20T05:08:52;6.60;;;3.47;;
4980;SDS011;2507;50.392;7.482;2023-05-20T05:11:17;2.90;;;2.80;;
4980;SDS011;2507;50.392;7.482;2023-05-20T05:13:42;3.03;;;2.90;;
4980;SDS011;2507;50.392;7.482;2023-05-20T05:16:08;3.90;;;3.07;;
4980;SDS011;2507;50.392;7.482;2023-05-20T05:18:33;3.20;;;3.00;;
4980;SDS011;2507;50.392;7.482;2023-05-20T05:21:02;3.20;;;3.00;;
4980;SDS011;2507;50.392;7.482;2023-05-20T05:23:28;3.57;;;3.27;;
4980;SDS011;2507;50.392;7.482;2023-05-20T05:25:54;3.40;;;3.20;;
4980;SDS011;2507;50.392;7.482;2023-05-20T05:28:20;3.60;;;3.33;;
4980;SDS011;2507;50.392;7.482;2023-05-20T05:30:45;3.00;;;2.80;;
4980;SDS011;2507;50.392;7.482;2023-05-20T05:33:10;3.13;;;2.93;;
4980;SDS011;2507;50.392;7.482;2023-05-20T05:35:35;4.00;;;3.67;;
4980;SDS011;2507;50.392;7.482;2023-05-20T05:38:01;3.73;;;3.43;;
4980;SDS011;2507;50.392;7.482;2023-05-20T05:40:27;6.77;;;3.83;;
4980;SDS011;2507;50.392;7.482;2023-05-20T05:42:52;3.40;;;3.20;;
4980;SDS011;2507;50.392;7.482;2023-05-20T05:45:17;3.70;;;2.83;;
4980;SDS011;2507;50.392;7.482;2023-05-20T05:47:42;4.63;;;2.97;;
4980;SDS011;2507;50.392;7.482;2023-05-20T05:50:08;3.20;;;2.90;;
4980;SDS011;2507;50.392;7.482;2023-05-20T05:52:34;2.90;;;2.70;;
4980;SDS011;2507;50.392;7.482;2023-05-20T05:54:59;4.40;;;3.10;;
4980;SDS011;2507;50.392;7.482;2023-05-20T05:57:25;3.27;;;2.97;;
4980;SDS011;2507;50.392;7.482;2023-05-20T05:59:50;3.57;;;3.37;;
4980;SDS011;2507;50.392;7.482;2023-05-20T06:02:16;3.10;;;2.90;;
4980;SDS011;2507;50.392;7.482;2023-05-20T06:04:41;2.90;;;2.70;;
4980;SDS011;2507;50.392;7.482;2023-05-20T06:07:06;3.50;;;3.10;;
4980;SDS011;2507;50.392;7.482;2023-05-20T06:09:32;3.53;;;2.70;;
4980;SDS011;2507;50.392;7.482;2023-05-20T06:11:57;3.43;;;3.03;;
4980;SDS011;2507;50.392;7.482;2023-05-20T06:14:22;4.30;;;3.37;;
4980;SDS011;2507;50.392;7.482;2023-05-20T06:16:48;4.53;;;3.50;;
4980;SDS011;2507;50.392;7.482;2023-05-20T06:19:13;3.50;;;3.20;;
4980;SDS011;2507;50.392;7.482;2023-05-20T06:21:38;4.10;;;2.73;;
4980;SDS011;2507;50.392;7.482;2023-05-20T06:24:04;4.50;;;3.70;;
4980;SDS011;2507;50.392;7.482;2023-05-20T06:26:29;4.70;;;3.60;;
4980;SDS011;2507;50.392;7.482;2023-05-20T06:28:55;3.20;;;3.00;;
4980;SDS011;2507;50.392;7.482;2023-05-20T06:31:21;2.93;;;2.73;;
4980;SDS011;2507;50.392;7.482;2023-05-20T06:33:46;6.57;;;3.23;;
4980;SDS011;2507;50.392;7.482;2023-05-20T06:36:11;2.97;;;2.70;;
4980;SDS011;2507;50.392;7.482;2023-05-20T06:38:37;2.63;;;2.43;;
4980;SDS011;2507;50.392;7.482;2023-05-20T06:41:02;3.13;;;2.90;;
4980;SDS011;2507;50.392;7.482;2023-05-20T06:43:27;3.40;;;3.20;;
4980;SDS011;2507;50.392;7.482;2023-05-20T06:45:53;3.03;;;2.83;;
4980;SDS011;2507;50.392;7.482;2023-05-20T06:48:18;2.97;;;2.87;;
4980;SDS011;2507;50.392;7.482;2023-05-20T06:50:43;2.87;;;2.77;;
4980;SDS011;2507;50.392;7.482;2023-05-20T06:53:09;3.20;;;2.80;;
4980;SDS011;2507;50.392;7.482;2023-05-20T06:55:35;3.20;;;3.00;;
4980;SDS011;2507;50.392;7.482;2023-05-20T06:58:01;3.77;;;2.70;;
4980;SDS011;2507;50.392;7.482;2023-05-20T07:00:26;2.80;;;2.70;;
4980;SDS011;2507;50.392;7.482;2023-05-20T07:02:51;5.13;;;3.20;;
4980;SDS011;2507;50.392;7.482;2023-05-20T07:05:17;3.40;;;3.20;;
4980;SDS011;2507;50.392;7.482;2023-05-20T07:07:42;5.23;;;2.80;;
4980;SDS011;2507;50.392;7.482;2023-05-20T07:10:07;3.10;;;2.60;;
4980;SDS011;2507;50.392;7.482;2023-05-20T07:12:33;3.80;;;3.43;;
4980;SDS011;2507;50.392;7.482;2023-05-20T07:14:58;2.83;;;2.63;;
4980;SDS011;2507;50.392;7.482;2023-05-20T07:17:24;2.60;;;2.30;;
4980;SDS011;2507;50.392;7.482;2023-05-20T07:19:50;3.67;;;2.87;;
4980;SDS011;2507;50.392;7.482;2023-05-20T07:22:15;2.70;;;2.50;;
4980;SDS011;2507;50.392;7.482;2023-05-20T07:24:41;3.17;;;2.83;;
4980;SDS011;2507;50.392;7.482;2023-05-20T07:27:06;3.23;;;3.03;;
4980;SDS011;2507;50.392;7.482;2023-05-20T07:29:32;2.83;;;2.63;;
4980;SDS011;2507;50.392;7.482;2023-05-20T07:31:58;2.60;;;2.50;;
4980;SDS011;2507;50.392;7.482;2023-05-20T07:34:23;2.97;;;2.77;;
4980;SDS011;2507;50.392;7.482;2023-05-20T07:36:49;3.27;;;2.97;;
4980;SDS011;2507;50.392;7.482;2023-05-20T07:39:15;3.03;;;2.83;;
4980;SDS011;2507;50.392;7.482;2023-05-20T07:41:40;3.40;;;2.70;;
4980;SDS011;2507;50.392;7.482;2023-05-20T07:44:06;5.63;;;3.00;;
4980;SDS011;2507;50.392;7.482;2023-05-20T07:46:36;2.60;;;2.50;;
4980;SDS011;2507;50.392;7.482;2023-05-20T07:49:02;3.10;;;2.90;;
4980;SDS011;2507;50.392;7.482;2023-05-20T07:51:28;2.90;;;2.60;;
4980;SDS011;2507;50.392;7.482;2023-05-20T07:53:53;2.77;;;2.67;;
4980;SDS011;2507;50.392;7.482;2023-05-20T07:56:19;5.10;;;3.03;;
4980;SDS011;2507;50.392;7.482;2023-05-20T07:58:50;3.10;;;3.00;;
4980;SDS011;2507;50.392;7.482;2023-05-20T08:01:20;3.80;;;2.80;;
4980;SDS011;2507;50.392;7.482;2023-05-20T08:03:45;5.43;;;2.63;;
4980;SDS011;2507;50.392;7.482;2023-05-20T08:06:11;3.20;;;3.00;;
4980;SDS011;2507;50.392;7.482;2023-05-20T08:08:36;3.37;;;3.10;;
4980;SDS011;2507;50.392;7.482;2023-05-20T08:11:04;4.77;;;3.50;;
4980;SDS011;2507;50.392;7.482;2023-05-20T08:13:29;6.83;;;3.60;;
4980;SDS011;2507;50.392;7.482;2023-05-20T08:15:55;2.83;;;2.70;;
4980;SDS011;2507;50.392;7.482;2023-05-20T08:18:20;3.07;;;2.90;;
4980;SDS011;2507;50.392;7.482;2023-05-20T08:20:46;4.33;;;3.93;;
4980;SDS011;2507;50.392;7.482;2023-05-20T08:23:11;4.10;;;3.70;;
4980;SDS011;2507;50.392;7.482;2023-05-20T08:25:37;3.47;;;3.27;;
4980;SDS011;2507;50.392;7.482;2023-05-20T08:28:02;4.73;;;3.83;;
4980;SDS011;2507;50.392;7.482;2023-05-20T08:30:29;4.50;;;4.10;;
4980;SDS011;2507;50.392;7.482;2023-05-20T08:32:55;4.10;;;3.90;;
4980;SDS011;2507;50.392;7.482;2023-05-20T08:35:21;5.13;;;4.73;;
4980;SDS011;2507;50.392;7.482;2023-05-20T08:37:47;5.37;;;4.87;;
4980;SDS011;2507;50.392;7.482;2023-05-20T08:40:13;4.70;;;4.40;;
4980;SDS011;2507;50.392;7.482;2023-05-20T08:42:41;5.07;;;4.67;;
4980;SDS011;2507;50.392;7.482;2023-05-20T08:45:10;13.33;;;5.07;;
4980;SDS011;2507;50.392;7.482;2023-05-20T08:47:38;4.80;;;4.40;;
4980;SDS011;2507;50.392;7.482;2023-05-20T08:50:07;4.87;;;4.50;;
4980;SDS011;2507;50.392;7.482;2023-05-20T08:52:37;5.20;;;4.80;;
4980;SDS011;2507;50.392;7.482;2023-05-20T08:55:55;7.10;;;3.97;;
4980;SDS011;2507;50.392;7.482;2023-05-20T08:58:04;4.73;;;4.20;;
4980;SDS011;2507;50.392;7.482;2023-05-20T09:00:29;4.40;;;4.10;;
4980;SDS011;2507;50.392;7.482;2023-05-20T09:02:58;4.53;;;4.23;;
4980;SDS011;2507;50.392;7.482;2023-05-20T09:05:24;4.87;;;4.50;;
4980;SDS011;2507;50.392;7.482;2023-05-20T09:07:49;4.80;;;4.37;;
4980;SDS011;2507;50.392;7.482;2023-05-20T09:10:15;4.57;;;4.23;;
4980;SDS011;2507;50.392;7.482;2023-05-20T09:12:40;9.40;;;4.97;;
4980;SDS011;2507;50.392;7.482;2023-05-20T09:15:06;5.37;;;4.87;;
4980;SDS011;2507;50.392;7.482;2023-05-20T09:17:35;5.63;;;5.23;;
4980;SDS011;2507;50.392;7.482;2023-05-20T09:20:05;8.33;;;5.10;;
4980;SDS011;2507;50.392;7.482;2023-05-20T09:22:34;5.67;;;5.27;;
4980;SDS011;2507;50.392;7.482;2023-05-20T09:25:00;5.43;;;4.93;;
4980;SDS011;2507;50.392;7.482;2023-05-20T09:27:26;5.40;;;4.90;;
4980;SDS011;2507;50.392;7.482;2023-05-20T09:29:51;7.70;;;5.40;;
4980;SDS011;2507;50.392;7.482;2023-05-20T09:32:17;6.17;;;5.67;;
4980;SDS011;2507;50.392;7.482;2023-05-20T09:34:45;6.30;;;5.70;;
4980;SDS011;2507;50.392;7.482;2023-05-20T09:37:11;6.13;;;5.53;;
4980;SDS011;2507;50.392;7.482;2023-05-20T09:39:43;6.70;;;6.00;;
4980;SDS011;2507;50.392;7.482;2023-05-20T09:42:22;6.53;;;5.67;;
4980;SDS011;2507;50.392;7.482;2023-05-20T09:44:50;6.93;;;6.33;;
4980;SDS011;2507;50.392;7.482;2023-05-20T09:47:18;5.97;;;5.37;;
4980;SDS011;2507;50.392;7.482;2023-05-20T09:49:44;6.40;;;5.80;;
4980;SDS011;2507;50.392;7.482;2023-05-20T09:52:11;6.30;;;5.90;;
4980;SDS011;2507;50.392;7.482;2023-05-20T09:54:39;7.23;;;6.60;;
4980;SDS011;2507;50.392;7.482;2023-05-20T09:57:05;5.87;;;5.37;;
4980;SDS011;2507;50.392;7.482;2023-05-20T09:59:31;6.93;;;6.33;;
4980;SDS011;2507;50.392;7.482;2023-05-20T10:01:57;5.87;;;5.47;;
4980;SDS011;2507;50.392;7.482;2023-05-20T10:04:22;6.40;;;5.80;;
4980;SDS011;2507;50.392;7.482;2023-05-20T10:10:17;6.23;;;5.73;;
4980;SDS011;2507;50.392;7.482;2023-05-20T10:20:54;6.83;;;6.10;;
4980;SDS011;2507;50.392;7.482;2023-05-20T10:23:20;8.00;;;6.80;;
4980;SDS011;2507;50.392;7.482;2023-05-20T10:25:52;6.40;;;5.90;;
4980;SDS011;2507;50.392;7.482;2023-05-20T10:30:54;7.87;;;6.27;;
4980;SDS011;2507;50.392;7.482;2023-05-20T10:33:20;6.70;;;6.20;;
4980;SDS011;2507;50.392;7.482;2023-05-20T10:35:49;7.23;;;6.60;;
4980;SDS011;2507;50.392;7.482;2023-05-20T10:38:16;6.93;;;6.33;;
4980;SDS011;2507;50.392;7.482;2023-05-20T10:40:41;7.40;;;6.70;;
4980;SDS011;2507;50.392;7.482;2023-05-20T10:43:10;16.77;;;6.10;;
4980;SDS011;2507;50.392;7.482;2023-05-20T10:45:50;7.20;;;6.50;;
4980;SDS011;2507;50.392;7.482;2023-05-20T10:48:21;7.03;;;5.93;;
4980;SDS011;2507;50.392;7.482;2023-05-20T10:50:49;7.20;;;6.60;;
4980;SDS011;2507;50.392;7.482;2023-05-20T10:53:14;6.63;;;6.03;;
4980;SDS011;2507;50.392;7.482;2023-05-20T10:55:40;7.93;;;5.93;;
4980;SDS011;2507;50.392;7.482;2023-05-20T10:58:13;6.30;;;5.80;;
4980;SDS011;2507;50.392;7.482;2023-05-20T11:00:39;16.63;;;6.40;;
4980;SDS011;2507;50.392;7.482;2023-05-20T11:03:05;7.00;;;6.30;;
4980;SDS011;2507;50.392;7.482;2023-05-20T11:05:31;7.00;;;6.30;;
4980;SDS011;2507;50.392;7.482;2023-05-20T11:08:04;8.03;;;6.80;;
4980;SDS011;2507;50.392;7.482;2023-05-20T11:10:34;7.17;;;6.57;;
4980;SDS011;2507;50.392;7.482;2023-05-20T11:13:00;8.00;;;7.00;;
4980;SDS011;2507;50.392;7.482;2023-05-20T11:15:27;7.83;;;6.60;;
4980;SDS011;2507;50.392;7.482;2023-05-20T11:17:54;7.50;;;6.90;;
4980;SDS011;2507;50.392;7.482;2023-05-20T11:20:21;6.67;;;6.20;;
4980;SDS011;2507;50.392;7.482;2023-05-20T11:22:49;10.50;;;6.37;;
4980;SDS011;2507;50.392;7.482;2023-05-20T11:25:15;7.53;;;6.83;;
4980;SDS011;2507;50.392;7.482;2023-05-20T11:27:41;6.83;;;6.33;;
4980;SDS011;2507;50.392;7.482;2023-05-20T11:30:07;7.20;;;6.50;;
4980;SDS011;2507;50.392;7.482;2023-05-20T11:32:33;7.00;;;6.40;;
4980;SDS011;2507;50.392;7.482;2023-05-20T11:34:59;6.67;;;5.70;;
4980;SDS011;2507;50.392;7.482;2023-05-20T11:37:24;6.30;;;5.80;;
4980;SDS011;2507;50.392;7.482;2023-05-20T11:40:11;6.37;;;5.97;;
4980;SDS011;2507;50.392;7.482;2023-05-20T11:42:37;6.70;;;6.20;;
4980;SDS011;2507;50.392;7.482;2023-05-20T11:45:02;7.40;;;6.80;;
4980;SDS011;2507;50.392;7.482;2023-05-20T11:47:28;6.97;;;6.40;;
4980;SDS011;2507;50.392;7.482;2023-05-20T11:49:53;7.63;;;7.03;;
4980;SDS011;2507;50.392;7.482;2023-05-20T11:52:20;7.57;;;6.90;;
4980;SDS011;2507;50.392;7.482;2023-05-20T11:54:50;7.57;;;7.00;;
4980;SDS011;2507;50.392;7.482;2023-05-20T11:57:17;8.27;;;7.20;;
4980;SDS011;2507;50.392;7.482;2023-05-20T11:59:43;7.77;;;6.60;;
4980;SDS011;2507;50.392;7.482;2023-05-20T12:02:08;9.57;;;7.07;;
4980;SDS011;2507;50.392;7.482;2023-05-20T12:04:33;7.97;;;7.17;;
4980;SDS011;2507;50.392;7.482;2023-05-20T12:06:59;7.73;;;7.03;;
4980;SDS011;2507;50.392;7.482;2023-05-20T12:09:25;8.33;;;7.30;;
4980;SDS011;2507;50.392;7.482;2023-05-20T12:11:50;8.50;;;7.70;;
4980;SDS011;2507;50.392;7.482;2023-05-20T12:14:16;7.60;;;7.00;;
4980;SDS011;2507;50.392;7.482;2023-05-20T12:16:41;8.13;;;7.47;;
4980;SDS011;2507;50.392;7.482;2023-05-20T12:19:06;9.80;;;7.10;;
4980;SDS011;2507;50.392;7.482;2023-05-20T12:21:33;8.13;;;7.40;;
4980;SDS011;2507;50.392;7.482;2023-05-20T12:23:58;7.27;;;6.67;;
4980;SDS011;2507;50.392;7.482;2023-05-20T12:26:24;6.63;;;6.13;;
4980;SDS011;2507;50.392;7.482;2023-05-20T12:28:51;7.63;;;6.87;;
4980;SDS011;2507;50.392;7.482;2023-05-20T12:31:17;7.50;;;6.90;;
4980;SDS011;2507;50.392;7.482;2023-05-20T12:33:42;7.70;;;7.00;;
4980;SDS011;2507;50.392;7.482;2023-05-20T12:36:08;7.93;;;7.30;;
4980;SDS011;2507;50.392;7.482;2023-05-20T12:38:33;7.20;;;6.70;;
4980;SDS011;2507;50.392;7.482;2023-05-20T12:40:59;6.97;;;6.40;;
4980;SDS011;2507;50.392;7.482;2023-05-20T12:43:24;7.33;;;6.73;;
4980;SDS011;2507;50.392;7.482;2023-05-20T12:45:50;7.30;;;6.70;;
4980;SDS011;2507;50.392;7.482;2023-05-20T12:48:16;8.00;;;7.40;;
4980;SDS011;2507;50.392;7.482;2023-05-20T12:50:41;7.80;;;7.20;;
4980;SDS011;2507;50.392;7.482;2023-05-20T12:53:07;7.77;;;7.07;;
4980;SDS011;2507;50.392;7.482;2023-05-20T12:55:32;8.07;;;7.37;;
4980;SDS011;2507;50.392;7.482;2023-05-20T12:57:57;13.87;;;6.77;;
4980;SDS011;2507;50.392;7.482;2023-05-20T13:00:22;8.33;;;7.60;;
4980;SDS011;2507;50.392;7.482;2023-05-20T13:02:48;7.97;;;7.37;;
4980;SDS011;2507;50.392;7.482;2023-05-20T13:05:13;7.60;;;6.77;;
4980;SDS011;2507;50.392;7.482;2023-05-20T13:07:39;9.37;;;6.17;;
4980;SDS011;2507;50.392;7.482;2023-05-20T13:10:05;7.03;;;6.50;;
4980;SDS011;2507;50.392;7.482;2023-05-20T13:12:31;6.53;;;6.03;;
4980;SDS011;2507;50.392;7.482;2023-05-20T13:14:56;8.80;;;7.20;;
4980;SDS011;2507;50.392;7.482;2023-05-20T13:17:21;7.57;;;6.87;;
4980;SDS011;2507;50.392;7.482;2023-05-20T13:19:46;7.20;;;6.70;;
4980;SDS011;2507;50.392;7.482;2023-05-20T13:22:12;7.60;;;6.47;;
4980;SDS011;2507;50.392;7.482;2023-05-20T13:24:37;7.73;;;7.13;;
4980;SDS011;2507;50.392;7.482;2023-05-20T13:27:03;8.27;;;7.57;;
4980;SDS011;2507;50.392;7.482;2023-05-20T13:29:28;8.03;;;7.00;;
4980;SDS011;2507;50.392;7.482;2023-05-20T13:31:54;7.03;;;6.37;;
4980;SDS011;2507;50.392;7.482;2023-05-20T13:34:19;6.93;;;6.23;;
4980;SDS011;2507;50.392;7.482;2023-05-20T13:36:45;7.47;;;6.77;;
4980;SDS011;2507;50.392;7.482;2023-05-20T13:39:11;6.77;;;6.07;;
4980;SDS011;2507;50.392;7.482;2023-05-20T13:41:38;7.63;;;7.03;;
4980;SDS011;2507;50.392;7.482;2023-05-20T13:44:03;7.57;;;6.97;;
4980;SDS011;2507;50.392;7.482;2023-05-20T13:46:29;7.30;;;6.60;;
4980;SDS011;2507;50.392;7.482;2023-05-20T13:48:54;7.87;;;7.07;;
4980;SDS011;2507;50.392;7.482;2023-05-20T13:51:20;7.87;;;7.27;;
4980;SDS011;2507;50.392;7.482;2023-05-20T13:53:45;7.40;;;6.70;;
4980;SDS011;2507;50.392;7.482;2023-05-20T13:56:10;6.67;;;6.10;;
4980;SDS011;2507;50.392;7.482;2023-05-20T13:58:36;7.17;;;6.67;;
4980;SDS011;2507;50.392;7.482;2023-05-20T14:01:02;8.43;;;6.50;;
4980;SDS011;2507;50.392;7.482;2023-05-20T14:03:28;7.30;;;6.80;;
4980;SDS011;2507;50.392;7.482;2023-05-20T14:05:54;8.13;;;6.93;;
4980;SDS011;2507;50.392;7.482;2023-05-20T14:08:20;7.40;;;6.80;;
4980;SDS011;2507;50.392;7.482;2023-05-20T14:10:46;7.20;;;6.60;;
4980;SDS011;2507;50.392;7.482;2023-05-20T14:13:11;7.43;;;6.80;;
4980;SDS011;2507;50.392;7.482;2023-05-20T14:15:36;7.20;;;6.60;;
4980;SDS011;2507;50.392;7.482;2023-05-20T14:18:02;6.60;;;6.10;;
4980;SDS011;2507;50.392;7.482;2023-05-20T14:20:27;6.57;;;5.97;;
4980;SDS011;2507;50.392;7.482;2023-05-20T14:22:52;6.43;;;5.93;;
4980;SDS011;2507;50.392;7.482;2023-05-20T14:25:18;6.50;;;6.00;;
4980;SDS011;2507;50.392;7.482;2023-05-20T14:27:43;7.13;;;6.53;;
4980;SDS011;2507;50.392;7.482;2023-05-20T14:30:09;8.60;;;5.93;;
4980;SDS011;2507;50.392;7.482;2023-05-20T14:32:34;7.90;;;7.20;;
4980;SDS011;2507;50.392;7.482;2023-05-20T14:35:01;7.63;;;6.93;;
4980;SDS011;2507;50.392;7.482;2023-05-20T14:37:26;8.60;;;7.80;;
4980;SDS011;2507;50.392;7.482;2023-05-20T14:39:55;7.43;;;6.83;;
4980;SDS011;2507;50.392;7.482;2023-05-20T14:42:20;6.63;;;6.13;;
4980;SDS011;2507;50.392;7.482;2023-05-20T14:44:46;6.83;;;6.33;;
4980;SDS011;2507;50.392;7.482;2023-05-20T14:47:11;8.00;;;7.30;;
4980;SDS011;2507;50.392;7.482;2023-05-20T14:49:40;7.33;;;6.63;;
4980;SDS011;2507;50.392;7.482;2023-05-20T14:52:06;10.90;;;6.43;;
4980;SDS011;2507;50.392;7.482;2023-05-20T14:54:31;7.30;;;6.70;;
4980;SDS011;2507;50.392;7.482;2023-05-20T14:56:57;7.20;;;6.50;;
4980;SDS011;2507;50.392;7.482;2023-05-20T14:59:22;7.30;;;6.70;;
4980;SDS011;2507;50.392;7.482;2023-05-20T15:01:48;8.03;;;7.33;;
4980;SDS011;2507;50.392;7.482;2023-05-20T15:04:13;6.80;;;6.30;;
4980;SDS011;2507;50.392;7.482;2023-05-20T15:06:39;8.03;;;7.03;;
4980;SDS011;2507;50.392;7.482;2023-05-20T15:09:04;7.50;;;6.90;;
4980;SDS011;2507;50.392;7.482;2023-05-20T15:11:30;7.53;;;6.83;;
4980;SDS011;2507;50.392;7.482;2023-05-20T15:13:55;7.27;;;6.67;;
4980;SDS011;2507;50.392;7.482;2023-05-20T15:16:22;7.43;;;6.73;;
4980;SDS011;2507;50.392;7.482;2023-05-20T15:18:51;11.80;;;6.80;;
4980;SDS011;2507;50.392;7.482;2023-05-20T15:21:17;7.70;;;7.00;;
4980;SDS011;2507;50.392;7.482;2023-05-20T15:23:42;7.90;;;7.30;;
4980;SDS011;2507;50.392;7.482;2023-05-20T15:26:08;8.23;;;7.37;;
4980;SDS011;2507;50.392;7.482;2023-05-20T15:28:36;7.77;;;7.07;;
4980;SDS011;2507;50.392;7.482;2023-05-20T15:31:01;7.67;;;6.93;;